Time;durP1;ratioP1;P1;durP2;ratioP2;P2;SDS_P1;SDS_P2;PMS_P1;PMS_P2;Temp;Humidity;BMP_temperature;BMP_pressure;BME280_temperature;BME280_humidity;BME280_pressure;Samples;Min_cycle;Max_cycle;Signal;HPM_P1;HPM_P2
2021/12/06 00:02:08;;;;;;;;;;;20.30;43.70;;;;;;6239113;28;19928;-54
2021/12/06 00:05:11;;;;;;;;;;;20.30;43.70;;;;;;6242710;28;20651;-53
2021/12/06 00:08:12;;;;;;;;;;;20.70;43.90;;;;;;6239066;28;20014;-52
2021/12/06 00:11:14;;;;;;;;;;;20.70;44.00;;;;;;6237207;28;19981;-55
2021/12/06 00:14:16;;;;;;;;;;;20.60;43.90;;;;;;6237723;28;19935;-55
2021/12/06 00:17:19;;;;;;;;;;;20.40;43.80;;;;;;6234218;28;19975;-55
2021/12/06 00:20:22;;;;;;;;;;;20.30;43.70;;;;;;6233999;28;20039;-53
2021/12/06 00:23:24;;;;;;;;;;;20.60;43.90;;;;;;6217847;28;19928;-51
2021/12/06 00:26:25;;;;;;;;;;;21.10;44.20;;;;;;6236639;28;20725;-50
2021/12/06 00:29:27;;;;;;;;;;;20.20;43.60;;;;;;6235294;28;19932;-53
2021/12/06 00:32:29;;;;;;;;;;;20.80;44.10;;;;;;6216654;28;20665;-55
2021/12/06 00:35:30;;;;;;;;;;;20.40;43.80;;;;;;6231411;28;20030;-53
2021/12/06 00:38:33;;;;;;;;;;;20.30;44.30;;;;;;6239681;28;19924;-53
2021/12/06 00:41:35;;;;;;;;;;;20.50;43.80;;;;;;6242295;28;19931;-54
2021/12/06 00:44:37;;;;;;;;;;;20.70;44.00;;;;;;6242678;28;19921;-49
2021/12/06 00:47:39;;;;;;;;;;;20.70;43.90;;;;;;6244767;28;19951;-54
2021/12/06 00:50:42;;;;;;;;;;;20.40;43.80;;;;;;6243776;28;19976;-53
2021/12/06 00:53:43;;;;;;;;;;;20.90;44.00;;;;;;6246664;28;20039;-52
2021/12/06 00:56:45;;;;;;;;;;;20.60;44.00;;;;;;6227016;28;19935;-53
2021/12/06 00:59:46;;;;;;;;;;;20.50;43.90;;;;;;6240477;28;20049;-53
2021/12/06 01:02:49;;;;;;;;;;;20.40;43.70;;;;;;6247779;28;19954;-50
2021/12/06 01:05:50;;;;;;;;;;;20.40;43.80;;;;;;6245715;28;20394;-51
2021/12/06 01:08:52;;;;;;;;;;;20.50;43.90;;;;;;6247994;28;19928;-54
2021/12/06 01:11:54;;;;;;;;;;;20.40;43.90;;;;;;6247020;28;19924;-51
2021/12/06 01:14:56;;;;;;;;;;;20.40;43.90;;;;;;6250075;28;19959;-50
2021/12/06 01:17:59;;;;;;;;;;;20.30;43.80;;;;;;6247313;28;20662;-53
2021/12/06 01:21:09;;;;;;;;;;;20.50;43.80;;;;;;6247522;28;20005;-54
2021/12/06 01:24:12;;;;;;;;;;;20.70;44.00;;;;;;6249032;28;19936;-54
2021/12/06 01:27:33;;;;;;;;;;;20.60;43.90;;;;;;6246723;28;20437;-54
2021/12/06 01:30:51;;;;;;;;;;;20.70;43.90;;;;;;6248401;28;20040;-54
2021/12/06 01:34:10;;;;;;;;;;;20.80;44.00;;;;;;6247702;28;19952;-55
2021/12/06 01:40:31;;;;;;;;;;;20.60;43.90;;;;;;6247989;28;19930;-55
2021/12/06 01:43:33;;;;;;;;;;;20.30;43.70;;;;;;6247607;28;19929;-55
2021/12/06 01:46:39;;;;;;;;;;;20.50;43.90;;;;;;6245764;28;19924;-55
2021/12/06 01:49:43;;;;;;;;;;;20.20;43.60;;;;;;6248271;28;20046;-51
2021/12/06 01:52:46;;;;;;;;;;;20.40;43.70;;;;;;6230055;28;19932;-52
2021/12/06 01:55:47;;;;;;;;;;;21.00;44.00;;;;;;6244303;28;20734;-55
2021/12/06 01:58:49;;;;;;;;;;;20.10;43.50;;;;;;6244489;28;21318;-53
2021/12/06 02:01:53;;;;;;;;;;;20.30;43.70;;;;;;6247383;28;19921;-53
2021/12/06 02:04:57;;;;;;;;;;;20.50;43.80;;;;;;6248291;28;19932;-51
2021/12/06 02:08:01;;;;;;;;;;;20.50;43.80;;;;;;6232654;28;19925;-47
2021/12/06 02:11:03;;;;;;;;;;;20.10;43.60;;;;;;6239054;28;19932;-47
2021/12/06 02:14:22;;;;;;;;;;;20.40;43.70;;;;;;6237229;28;20179;-49
2021/12/06 02:17:27;;;;;;;;;;;20.70;44.00;;;;;;6239572;28;19932;-47
2021/12/06 02:20:30;;;;;;;;;;;20.60;43.90;;;;;;6241798;28;20525;-48
2021/12/06 02:23:33;;;;;;;;;;;20.20;43.60;;;;;;6220311;28;20260;-48
2021/12/06 02:26:37;;;;;;;;;;;20.40;44.40;;;;;;6239334;28;19929;-50
2021/12/06 02:29:39;;;;;;;;;;;20.60;43.80;;;;;;6236430;28;20025;-49
2021/12/06 02:32:43;;;;;;;;;;;20.30;43.60;;;;;;6219539;28;19970;-50
2021/12/06 02:35:44;;;;;;;;;;;20.40;43.70;;;;;;6236122;28;20242;-52
2021/12/06 02:38:46;;;;;;;;;;;20.20;43.70;;;;;;6233710;28;19928;-47
2021/12/06 02:41:51;;;;;;;;;;;20.60;43.90;;;;;;6219044;28;20197;-48
2021/12/06 02:44:53;;;;;;;;;;;20.20;43.60;;;;;;6251381;28;19924;-47
2021/12/06 02:47:58;;;;;;;;;;;20.40;43.70;;;;;;6235797;28;20337;-49
2021/12/06 02:51:05;;;;;;;;;;;20.20;43.60;;;;;;6233127;28;20618;-47
2021/12/06 02:54:09;;;;;;;;;;;20.60;43.90;;;;;;6234139;28;20705;-47
2021/12/06 02:57:21;;;;;;;;;;;20.80;44.00;;;;;;6237436;28;20458;-49
2021/12/06 03:00:23;;;;;;;;;;;20.40;43.70;;;;;;6235524;28;20359;-49
2021/12/06 03:03:24;;;;;;;;;;;20.30;43.70;;;;;;6219004;28;20226;-47
2021/12/06 03:06:26;;;;;;;;;;;20.10;43.60;;;;;;6238314;28;19978;-48
2021/12/06 03:09:33;;;;;;;;;;;20.10;43.60;;;;;;6222623;28;19924;-48
2021/12/06 03:12:35;;;;;;;;;;;20.40;43.80;;;;;;6238734;28;20410;-50
2021/12/06 03:15:36;;;;;;;;;;;20.40;43.70;;;;;;6217173;28;19994;-47
2021/12/06 03:18:41;;;;;;;;;;;20.30;43.80;;;;;;6235511;28;19924;-50
2021/12/06 03:21:42;;;;;;;;;;;20.30;43.70;;;;;;6236467;28;19924;-48
2021/12/06 03:24:46;;;;;;;;;;;20.40;43.80;;;;;;6236344;28;20054;-47
2021/12/06 03:27:48;;;;;;;;;;;20.50;43.80;;;;;;6218008;28;20183;-47
2021/12/06 03:30:50;;;;;;;;;;;20.20;43.70;;;;;;6237494;28;20422;-49
2021/12/06 03:33:52;;;;;;;;;;;20.20;43.60;;;;;;6241419;28;20296;-49
2021/12/06 03:36:55;;;;;;;;;;;20.30;43.70;;;;;;6240306;28;19924;-51
2021/12/06 03:39:58;;;;;;;;;;;20.30;43.70;;;;;;6243973;28;20014;-54
2021/12/06 03:43:02;;;;;;;;;;;20.20;43.70;;;;;;6244126;28;20907;-52
2021/12/06 03:46:05;;;;;;;;;;;20.30;43.70;;;;;;6237830;28;20044;-54
2021/12/06 03:49:10;;;;;;;;;;;20.60;43.80;;;;;;6245799;28;19920;-53
2021/12/06 03:52:13;;;;;;;;;;;20.60;43.90;;;;;;6247358;28;19935;-52
2021/12/06 03:55:18;;;;;;;;;;;20.20;43.60;;;;;;6225087;28;19924;-48
2021/12/06 03:58:21;;;;;;;;;;;20.30;43.70;;;;;;6236868;28;20278;-48
2021/12/06 04:01:22;;;;;;;;;;;20.40;43.80;;;;;;6234771;28;20482;-52
2021/12/06 04:04:26;;;;;;;;;;;20.30;43.70;;;;;;6214366;28;20197;-47
2021/12/06 04:07:28;;;;;;;;;;;20.60;43.90;;;;;;6228825;28;19958;-50
2021/12/06 04:10:31;;;;;;;;;;;20.10;43.60;;;;;;6231763;28;19928;-51
2021/12/06 04:13:34;;;;;;;;;;;20.30;43.80;;;;;;6233809;28;20024;-54
2021/12/06 04:16:37;;;;;;;;;;;20.30;43.70;;;;;;6241570;28;19926;-51
2021/12/06 04:19:40;;;;;;;;;;;20.10;43.60;;;;;;6246072;28;19920;-52
2021/12/06 04:22:42;;;;;;;;;;;20.70;43.90;;;;;;6208882;28;20108;-47
2021/12/06 04:25:44;;;;;;;;;;;20.50;43.80;;;;;;6235061;28;20748;-52
2021/12/06 04:28:49;;;;;;;;;;;20.20;43.70;;;;;;6240878;28;19928;-49
2021/12/06 04:31:53;;;;;;;;;;;20.20;43.60;;;;;;6234150;28;20413;-48
2021/12/06 04:34:57;;;;;;;;;;;20.20;43.60;;;;;;6239180;28;19932;-54
2021/12/06 04:38:00;;;;;;;;;;;20.50;43.90;;;;;;6240776;28;20824;-53
2021/12/06 04:41:03;;;;;;;;;;;20.50;43.70;;;;;;6243988;28;19930;-50
2021/12/06 04:44:05;;;;;;;;;;;20.30;43.80;;;;;;6245397;28;19928;-55
2021/12/06 04:47:06;;;;;;;;;;;20.60;43.90;;;;;;6241360;28;20146;-51
2021/12/06 04:50:11;;;;;;;;;;;20.60;43.90;;;;;;6226325;28;20058;-54
2021/12/06 04:53:14;;;;;;;;;;;20.70;43.90;;;;;;6222554;28;19947;-54
2021/12/06 04:56:18;;;;;;;;;;;20.30;43.70;;;;;;6239818;28;19924;-54
2021/12/06 04:59:23;;;;;;;;;;;20.30;43.70;;;;;;6238867;28;20013;-49
2021/12/06 05:02:27;;;;;;;;;;;20.60;43.90;;;;;;6216440;28;19928;-48
2021/12/06 05:05:32;;;;;;;;;;;20.20;43.70;;;;;;6237844;28;19928;-50
2021/12/06 05:08:35;;;;;;;;;;;20.10;43.60;;;;;;6234373;28;20227;-55
2021/12/06 05:11:38;;;;;;;;;;;20.10;43.60;;;;;;6228467;28;19935;-49
2021/12/06 05:14:39;;;;;;;;;;;20.40;43.80;;;;;;6221335;28;20795;-52
2021/12/06 05:17:43;;;;;;;;;;;20.20;43.60;;;;;;6233305;28;20343;-53
2021/12/06 05:20:46;;;;;;;;;;;19.90;43.50;;;;;;6236101;28;19935;-52
2021/12/06 05:23:48;;;;;;;;;;;20.60;43.90;;;;;;6232762;28;20362;-48
2021/12/06 05:26:51;;;;;;;;;;;20.20;43.60;;;;;;6232756;28;20567;-49
2021/12/06 05:29:57;;;;;;;;;;;20.30;43.80;;;;;;6236766;28;20400;-50
2021/12/06 05:32:59;;;;;;;;;;;20.30;43.70;;;;;;6236671;28;19940;-51
2021/12/06 05:36:02;;;;;;;;;;;20.40;43.80;;;;;;6243188;28;19928;-53
2021/12/06 05:39:06;;;;;;;;;;;20.10;43.60;;;;;;6245931;28;19990;-48
2021/12/06 05:42:09;;;;;;;;;;;20.20;43.70;;;;;;6246353;28;20002;-53
2021/12/06 05:45:13;;;;;;;;;;;20.10;43.70;;;;;;6236237;28;20144;-49
2021/12/06 05:48:14;;;;;;;;;;;20.10;43.60;;;;;;6238075;28;20035;-53
2021/12/06 05:51:16;;;;;;;;;;;20.30;43.80;;;;;;6238970;28;20829;-50
2021/12/06 05:54:17;;;;;;;;;;;20.70;44.00;;;;;;6230740;28;20843;-51
2021/12/06 05:57:19;;;;;;;;;;;20.30;43.70;;;;;;6229180;28;19931;-53
2021/12/06 06:00:23;;;;;;;;;;;20.50;43.80;;;;;;6235629;28;19959;-51
2021/12/06 06:03:25;;;;;;;;;;;20.50;43.80;;;;;;6235245;28;19928;-51
2021/12/06 06:06:27;;;;;;;;;;;20.10;43.70;;;;;;6238213;28;19928;-55
2021/12/06 06:09:28;;;;;;;;;;;20.40;43.70;;;;;;6247374;28;19920;-55
2021/12/06 06:12:30;;;;;;;;;;;20.30;43.70;;;;;;6230071;28;19959;-55
2021/12/06 06:15:32;;;;;;;;;;;20.50;43.90;;;;;;6239358;28;19964;-56
2021/12/06 06:18:33;;;;;;;;;;;20.30;43.70;;;;;;6237419;28;20839;-56
2021/12/06 06:21:35;;;;;;;;;;;20.10;43.60;;;;;;6239013;28;19994;-56
2021/12/06 06:24:36;;;;;;;;;;;20.60;44.00;;;;;;6238563;28;19920;-54
2021/12/06 06:27:39;;;;;;;;;;;20.40;43.90;;;;;;6219370;28;19927;-55
2021/12/06 06:30:40;;;;;;;;;;;20.20;43.70;;;;;;6230469;28;21833;-54
2021/12/06 06:33:42;;;;;;;;;;;20.30;43.70;;;;;;6207202;28;20343;-52
2021/12/06 06:36:43;;;;;;;;;;;20.20;43.60;;;;;;6225782;28;20902;-53
2021/12/06 06:39:44;;;;;;;;;;;20.60;43.90;;;;;;6232328;28;20005;-55
2021/12/06 06:42:46;;;;;;;;;;;20.20;43.70;;;;;;6232061;28;19928;-56
2021/12/06 06:45:47;;;;;;;;;;;19.80;43.50;;;;;;6226214;28;20066;-53
2021/12/06 06:48:49;;;;;;;;;;;20.50;43.80;;;;;;6220025;28;19925;-54
2021/12/06 06:51:50;;;;;;;;;;;20.00;43.50;;;;;;6228457;28;20048;-56
2021/12/06 06:54:52;;;;;;;;;;;20.50;43.80;;;;;;6226222;28;19935;-55
2021/12/06 06:57:54;;;;;;;;;;;20.20;43.50;;;;;;6223896;28;20094;-55
2021/12/06 07:00:55;;;;;;;;;;;20.20;43.50;;;;;;6206572;28;21819;-55
2021/12/06 07:03:57;;;;;;;;;;;20.10;43.40;;;;;;6207334;28;19928;-54
2021/12/06 07:06:59;;;;;;;;;;;20.20;43.50;;;;;;6189522;28;19962;-55
2021/12/06 07:10:00;;;;;;;;;;;20.10;43.40;;;;;;6200002;28;20723;-56
2021/12/06 07:13:07;;;;;;;;;;;20.20;43.40;;;;;;6208390;28;19928;-55
2021/12/06 07:16:09;;;;;;;;;;;20.50;43.50;;;;;;6207432;28;19935;-54
2021/12/06 07:19:10;;;;;;;;;;;20.20;43.40;;;;;;6217147;28;19982;-55
2021/12/06 07:22:30;;;;;;;;;;;20.40;43.40;;;;;;6177619;28;20058;-54
2021/12/06 07:25:34;;;;;;;;;;;20.20;43.30;;;;;;6183115;28;20055;-56
2021/12/06 07:28:36;;;;;;;;;;;20.80;43.50;;;;;;6201718;28;19967;-55
2021/12/06 07:31:37;;;;;;;;;;;20.70;43.30;;;;;;6192962;28;19934;-55
2021/12/06 07:34:39;;;;;;;;;;;20.50;43.30;;;;;;6195598;28;19928;-55
2021/12/06 07:37:41;;;;;;;;;;;20.80;43.30;;;;;;6187826;28;19928;-56
2021/12/06 07:40:42;;;;;;;;;;;20.40;43.00;;;;;;6146501;28;20065;-53
2021/12/06 07:43:44;;;;;;;;;;;20.70;43.20;;;;;;6162909;28;21275;-56
2021/12/06 07:46:46;;;;;;;;;;;20.70;43.10;;;;;;6156032;28;19928;-53
2021/12/06 07:49:48;;;;;;;;;;;20.20;43.00;;;;;;6158921;28;19964;-53
2021/12/06 07:53:00;;;;;;;;;;;20.90;43.30;;;;;;6142356;28;19928;-52
2021/12/06 07:56:02;;;;;;;;;;;20.80;43.10;;;;;;6135445;28;19928;-51
2021/12/06 07:59:04;;;;;;;;;;;20.60;43.00;;;;;;6093908;28;19928;-55
2021/12/06 08:02:09;;;;;;;;;;;20.40;42.80;;;;;;6057719;28;21405;-47
2021/12/06 08:08:30;;;;;;;;;;;20.90;43.00;;;;;;6041209;28;19936;-51
2021/12/06 08:11:31;;;;;;;;;;;20.70;42.90;;;;;;6028690;28;19935;-54
2021/12/06 08:14:33;;;;;;;;;;;20.70;43.00;;;;;;6035619;28;20026;-54
2021/12/06 08:17:35;;;;;;;;;;;20.60;42.80;;;;;;6015543;28;19928;-53
2021/12/06 08:20:37;;;;;;;;;;;21.00;42.90;;;;;;6015026;28;19932;-55
2021/12/06 08:23:39;;;;;;;;;;;20.60;42.70;;;;;;6044013;28;19974;-55
2021/12/06 08:26:41;;;;;;;;;;;20.70;43.40;;;;;;6020816;28;19928;-53
2021/12/06 08:29:43;;;;;;;;;;;20.70;42.70;;;;;;6020405;28;19928;-46
2021/12/06 08:32:47;;;;;;;;;;;21.00;43.40;;;;;;5983972;28;19932;-53
2021/12/06 08:36:08;;;;;;;;;;;20.60;42.60;;;;;;6001137;28;22821;-56
2021/12/06 08:39:09;;;;;;;;;;;20.70;42.60;;;;;;6007128;28;19936;-54
2021/12/06 08:42:11;;;;;;;;;;;20.90;42.70;;;;;;5991778;28;19928;-55
2021/12/06 08:45:13;;;;;;;;;;;21.00;42.60;;;;;;5997195;28;19929;-53
2021/12/06 08:48:14;;;;;;;;;;;20.90;42.50;;;;;;5987011;28;19929;-53
2021/12/06 08:51:17;;;;;;;;;;;21.00;42.50;;;;;;5993975;28;21446;-53
2021/12/06 08:54:19;;;;;;;;;;;21.30;42.60;;;;;;5976049;28;20897;-53
2021/12/06 08:57:21;;;;;;;;;;;21.20;42.40;;;;;;5977432;28;22854;-49
2021/12/06 09:00:25;;;;;;;;;;;21.60;42.70;;;;;;5976862;28;22112;-46
2021/12/06 09:03:28;;;;;;;;;;;21.40;42.50;;;;;;5951639;28;35453;-47
2021/12/06 09:06:31;;;;;;;;;;;21.30;42.40;;;;;;5979704;28;19994;-53
2021/12/06 09:09:32;;;;;;;;;;;21.50;42.40;;;;;;6010473;28;21013;-55
2021/12/06 09:12:34;;;;;;;;;;;21.30;42.40;;;;;;6020066;28;20910;-48
2021/12/06 09:15:36;;;;;;;;;;;21.60;42.40;;;;;;5997714;28;19928;-55
2021/12/06 09:18:39;;;;;;;;;;;21.50;42.30;;;;;;6003882;28;21546;-48
2021/12/06 09:21:43;;;;;;;;;;;22.00;42.60;;;;;;6015150;28;20651;-48
2021/12/06 09:24:44;;;;;;;;;;;21.90;42.40;;;;;;5997133;28;19928;-51
2021/12/06 09:27:46;;;;;;;;;;;21.70;42.30;;;;;;6010025;28;20970;-51
2021/12/06 09:30:49;;;;;;;;;;;21.70;42.20;;;;;;6041279;28;20512;-52
2021/12/06 09:33:50;;;;;;;;;;;21.90;42.30;;;;;;6007487;28;20365;-48
2021/12/06 09:36:52;;;;;;;;;;;21.90;42.20;;;;;;5981150;28;19994;-46
2021/12/06 09:39:56;;;;;;;;;;;21.80;42.20;;;;;;5991051;28;19928;-48
2021/12/06 09:42:58;;;;;;;;;;;21.80;42.20;;;;;;6011275;28;19929;-53
2021/12/06 09:46:00;;;;;;;;;;;22.00;42.40;;;;;;6011814;28;20130;-54
2021/12/06 09:49:03;;;;;;;;;;;22.00;42.20;;;;;;5991225;28;19928;-53
2021/12/06 09:52:06;;;;;;;;;;;22.00;41.60;;;;;;5982623;28;19928;-54
2021/12/06 09:55:08;;;;;;;;;;;22.00;42.20;;;;;;6012570;28;19932;-48
2021/12/06 09:58:10;;;;;;;;;;;21.90;42.10;;;;;;5998925;28;19928;-53
2021/12/06 10:01:14;;;;;;;;;;;22.00;42.10;;;;;;6010479;28;19928;-52
2021/12/06 10:04:16;;;;;;;;;;;22.10;42.10;;;;;;5988656;28;19988;-54
2021/12/06 10:07:20;;;;;;;;;;;22.40;42.30;;;;;;5994509;28;19929;-51
2021/12/06 10:10:21;;;;;;;;;;;22.10;42.10;;;;;;5990672;28;19928;-50
2021/12/06 10:13:23;;;;;;;;;;;22.00;42.00;;;;;;5964185;28;19936;-47
2021/12/06 10:16:26;;;;;;;;;;;22.00;42.10;;;;;;6001001;28;19928;-49
2021/12/06 10:19:27;;;;;;;;;;;22.20;42.10;;;;;;6024556;28;19972;-51
2021/12/06 10:22:29;;;;;;;;;;;22.10;42.00;;;;;;6022518;28;19928;-48
2021/12/06 10:25:34;;;;;;;;;;;22.20;42.10;;;;;;6006390;28;19928;-47
2021/12/06 10:28:45;;;;;;;;;;;22.00;42.00;;;;;;5967508;28;19928;-50
2021/12/06 10:31:50;;;;;;;;;;;22.30;42.10;;;;;;5983983;28;20068;-45
2021/12/06 10:34:53;;;;;;;;;;;22.20;42.00;;;;;;5981034;28;19928;-48
2021/12/06 10:37:57;;;;;;;;;;;22.20;42.10;;;;;;5994163;28;20009;-47
2021/12/06 10:40:59;;;;;;;;;;;22.20;42.10;;;;;;5989753;28;22013;-45
2021/12/06 10:44:03;;;;;;;;;;;22.00;41.90;;;;;;5976249;28;20094;-64
2021/12/06 10:47:12;;;;;;;;;;;22.20;42.10;;;;;;5984296;28;19928;-48
2021/12/06 10:50:17;;;;;;;;;;;22.20;42.10;;;;;;6000124;28;20009;-50
2021/12/06 10:53:19;;;;;;;;;;;22.30;42.10;;;;;;6019869;28;20266;-47
2021/12/06 10:56:25;;;;;;;;;;;22.20;41.90;;;;;;6021578;28;19928;-52
2021/12/06 10:59:28;;;;;;;;;;;22.10;42.00;;;;;;5983693;28;20074;-52
2021/12/06 11:02:30;;;;;;;;;;;22.40;42.10;;;;;;6016549;28;28002;-51
2021/12/06 11:05:33;;;;;;;;;;;22.40;41.90;;;;;;6036695;28;19928;-51
2021/12/06 11:08:35;;;;;;;;;;;22.40;42.00;;;;;;6037696;28;20381;-55
2021/12/06 11:11:38;;;;;;;;;;;22.60;42.60;;;;;;6031243;28;19928;-54
2021/12/06 11:14:41;;;;;;;;;;;22.90;42.20;;;;;;6049437;28;20020;-53
2021/12/06 11:17:43;;;;;;;;;;;22.30;42.00;;;;;;6046007;28;19928;-52
2021/12/06 11:20:47;;;;;;;;;;;22.70;42.10;;;;;;6053370;28;19940;-50
2021/12/06 11:23:56;;;;;;;;;;;22.00;41.70;;;;;;6052494;28;19927;-53
2021/12/06 11:27:00;;;;;;;;;;;22.30;42.00;;;;;;6034751;28;20698;-51
2021/12/06 11:30:04;;;;;;;;;;;22.30;41.90;;;;;;6056007;28;19928;-53
2021/12/06 11:33:08;;;;;;;;;;;22.40;42.00;;;;;;6041811;28;19966;-52
2021/12/06 11:36:18;;;;;;;;;;;22.40;42.00;;;;;;6087856;28;19929;-51
2021/12/06 11:39:21;;;;;;;;;;;22.30;42.00;;;;;;6101184;28;21254;-50
2021/12/06 11:42:23;;;;;;;;;;;22.10;42.00;;;;;;6081154;28;34233;-49
2021/12/06 11:45:31;;;;;;;;;;;22.50;42.30;;;;;;6100006;28;20043;-53
2021/12/06 11:48:35;;;;;;;;;;;22.10;42.10;;;;;;6107608;28;19928;-52
2021/12/06 11:51:37;;;;;;;;;;;22.20;42.10;;;;;;6086240;28;20021;-54
2021/12/06 11:54:41;;;;;;;;;;;22.20;42.10;;;;;;6114256;28;19993;-54
2021/12/06 11:57:44;;;;;;;;;;;22.20;42.10;;;;;;6072234;28;19928;-49
2021/12/06 12:00:45;;;;;;;;;;;22.20;42.10;;;;;;6067739;28;19929;-53
2021/12/06 12:03:53;;;;;;;;;;;22.30;42.10;;;;;;6084185;28;20017;-53
2021/12/06 12:06:56;;;;;;;;;;;22.30;42.20;;;;;;6078700;28;19981;-51
2021/12/06 12:09:59;;;;;;;;;;;22.30;42.20;;;;;;6087734;28;19928;-53
2021/12/06 12:13:01;;;;;;;;;;;22.30;42.20;;;;;;6132066;28;19970;-51
2021/12/06 12:16:05;;;;;;;;;;;22.40;42.20;;;;;;6113022;28;19933;-50
2021/12/06 12:19:08;;;;;;;;;;;22.20;42.20;;;;;;6096240;28;24883;-50
2021/12/06 12:22:11;;;;;;;;;;;22.40;42.20;;;;;;6094876;28;19928;-48
2021/12/06 12:25:21;;;;;;;;;;;22.40;42.20;;;;;;6111208;28;19978;-52
2021/12/06 12:28:26;;;;;;;;;;;22.30;42.20;;;;;;6106610;28;20124;-52
2021/12/06 12:31:30;;;;;;;;;;;22.40;42.20;;;;;;6080683;28;22834;-52
2021/12/06 12:34:37;;;;;;;;;;;22.20;42.10;;;;;;6078797;28;20965;-53
2021/12/06 12:37:40;;;;;;;;;;;22.30;42.10;;;;;;6087821;28;19929;-52
2021/12/06 12:40:43;;;;;;;;;;;22.40;42.20;;;;;;6090022;28;21191;-51
2021/12/06 12:43:47;;;;;;;;;;;22.20;42.10;;;;;;6109214;28;19935;-52
2021/12/06 12:46:50;;;;;;;;;;;22.20;42.20;;;;;;6081988;28;19929;-53
2021/12/06 12:49:53;;;;;;;;;;;22.50;42.30;;;;;;6047321;28;20035;-51
2021/12/06 12:52:55;;;;;;;;;;;22.40;42.40;;;;;;6052523;28;22928;-52
2021/12/06 12:55:57;;;;;;;;;;;22.20;42.20;;;;;;6069667;28;20475;-50
2021/12/06 12:58:59;;;;;;;;;;;22.40;42.40;;;;;;6046045;28;19934;-49
2021/12/06 13:02:17;;;;;;;;;;;22.00;42.20;;;;;;5996815;28;19934;-49
2021/12/06 13:05:26;;;;;;;;;;;22.40;42.30;;;;;;5977471;28;20066;-55
2021/12/06 13:08:34;;;;;;;;;;;22.60;42.40;;;;;;6003717;28;20045;-55
2021/12/06 13:11:53;;;;;;;;;;;22.10;42.10;;;;;;6005375;28;22417;-47
2021/12/06 13:15:09;;;;;;;;;;;22.30;42.10;;;;;;6005949;28;19940;-54
2021/12/06 13:18:28;;;;;;;;;;;22.30;42.20;;;;;;6029550;28;21362;-54
2021/12/06 13:21:34;;;;;;;;;;;22.40;42.20;;;;;;6019726;28;20063;-49
2021/12/06 13:24:38;;;;;;;;;;;22.50;42.30;;;;;;6009455;28;20066;-52
2021/12/06 13:27:43;;;;;;;;;;;22.40;42.10;;;;;;6034727;28;19928;-50
2021/12/06 13:30:45;;;;;;;;;;;22.40;42.10;;;;;;5997648;28;19928;-51
2021/12/06 13:33:48;;;;;;;;;;;22.70;42.30;;;;;;5998083;28;21132;-55
2021/12/06 13:36:51;;;;;;;;;;;22.60;42.10;;;;;;5997036;28;19928;-51
2021/12/06 13:39:53;;;;;;;;;;;22.60;42.20;;;;;;6014975;28;20067;-50
2021/12/06 13:42:54;;;;;;;;;;;22.60;42.10;;;;;;6023192;28;20113;-55
2021/12/06 13:45:57;;;;;;;;;;;22.70;42.10;;;;;;6016606;28;21681;-52
2021/12/06 13:48:59;;;;;;;;;;;22.80;42.20;;;;;;5991083;28;22276;-53
2021/12/06 13:52:04;;;;;;;;;;;22.50;42.00;;;;;;5980879;28;19936;-51
2021/12/06 13:55:18;;;;;;;;;;;22.80;42.10;;;;;;5986915;28;19972;-55
2021/12/06 13:58:20;;;;;;;;;;;22.70;42.10;;;;;;6013154;28;20022;-46
2021/12/06 14:01:22;;;;;;;;;;;22.70;42.00;;;;;;5988741;28;19951;-46
2021/12/06 14:04:24;;;;;;;;;;;22.80;42.10;;;;;;5995792;28;20074;-45
2021/12/06 14:07:27;;;;;;;;;;;22.80;42.10;;;;;;5981864;28;19928;-50
2021/12/06 14:10:32;;;;;;;;;;;22.70;42.00;;;;;;5974459;28;19929;-48
2021/12/06 14:13:34;;;;;;;;;;;22.80;42.10;;;;;;6004399;28;19977;-49
2021/12/06 14:16:38;;;;;;;;;;;22.60;42.00;;;;;;5999805;28;22014;-52
2021/12/06 14:19:40;;;;;;;;;;;22.80;42.10;;;;;;6002440;28;19928;-51
2021/12/06 14:22:43;;;;;;;;;;;22.60;42.10;;;;;;6004416;28;22888;-52
2021/12/06 14:25:49;;;;;;;;;;;22.80;42.20;;;;;;6012803;28;19966;-48
2021/12/06 14:28:51;;;;;;;;;;;22.50;42.10;;;;;;6027419;28;19928;-51
2021/12/06 14:31:54;;;;;;;;;;;22.80;42.30;;;;;;6015583;28;19928;-47
2021/12/06 14:34:56;;;;;;;;;;;22.80;42.40;;;;;;5989881;28;19966;-48
2021/12/06 14:37:58;;;;;;;;;;;22.70;42.20;;;;;;5951724;28;21911;-51
2021/12/06 14:41:00;;;;;;;;;;;23.00;42.40;;;;;;6000948;28;19935;-46
2021/12/06 14:44:02;;;;;;;;;;;22.70;42.30;;;;;;6010642;28;19928;-47
2021/12/06 14:47:04;;;;;;;;;;;22.80;42.40;;;;;;5959182;28;19928;-49
2021/12/06 14:50:20;;;;;;;;;;;22.70;42.30;;;;;;6048538;28;21384;-48
2021/12/06 14:53:35;;;;;;;;;;;22.70;42.30;;;;;;6028347;28;22612;-51
2021/12/06 14:56:47;;;;;;;;;;;22.60;42.20;;;;;;6006895;28;19935;-48
2021/12/06 14:59:49;;;;;;;;;;;22.70;42.30;;;;;;5998163;28;20765;-50
2021/12/06 15:02:52;;;;;;;;;;;22.80;42.30;;;;;;6031024;28;20037;-49
2021/12/06 15:05:54;;;;;;;;;;;22.70;42.30;;;;;;6022846;28;19928;-51
2021/12/06 15:08:57;;;;;;;;;;;22.20;42.00;;;;;;6013989;28;20027;-46
2021/12/06 15:12:01;;;;;;;;;;;22.60;42.20;;;;;;6005506;28;19928;-50
2021/12/06 15:15:04;;;;;;;;;;;22.70;42.40;;;;;;6000091;28;19928;-48
2021/12/06 15:18:10;;;;;;;;;;;22.90;42.40;;;;;;6024140;28;19978;-45
2021/12/06 15:21:13;;;;;;;;;;;22.70;42.40;;;;;;6037366;28;19928;-46
2021/12/06 15:24:15;;;;;;;;;;;22.60;42.40;;;;;;6004890;28;19936;-45
2021/12/06 15:27:17;;;;;;;;;;;22.70;42.50;;;;;;6041810;28;19929;-47
2021/12/06 15:30:20;;;;;;;;;;;22.60;42.40;;;;;;6035444;28;21069;-47
2021/12/06 15:33:22;;;;;;;;;;;22.70;42.50;;;;;;6016855;28;19928;-46
2021/12/06 15:36:25;;;;;;;;;;;22.80;42.50;;;;;;6022368;28;19973;-47
2021/12/06 15:39:28;;;;;;;;;;;22.80;42.50;;;;;;6021120;28;19928;-48
2021/12/06 15:42:29;;;;;;;;;;;22.80;42.50;;;;;;6026948;28;19928;-49
2021/12/06 15:45:31;;;;;;;;;;;22.60;43.10;;;;;;6055371;28;22128;-48
2021/12/06 15:48:37;;;;;;;;;;;22.50;42.40;;;;;;6015092;28;19936;-48
2021/12/06 15:51:41;;;;;;;;;;;22.60;42.60;;;;;;6025843;28;20073;-49
2021/12/06 15:54:48;;;;;;;;;;;22.70;42.60;;;;;;6022364;28;19963;-51
2021/12/06 15:57:56;;;;;;;;;;;23.00;42.80;;;;;;6028370;28;19928;-51
2021/12/06 16:00:59;;;;;;;;;;;22.80;42.60;;;;;;6022792;28;20098;-51
2021/12/06 16:04:01;;;;;;;;;;;22.50;42.50;;;;;;6009615;28;21098;-49
2021/12/06 16:07:02;;;;;;;;;;;22.70;42.60;;;;;;6012204;28;19928;-48
2021/12/06 16:10:06;;;;;;;;;;;22.70;42.60;;;;;;6030175;28;19979;-48
2021/12/06 16:13:09;;;;;;;;;;;22.50;42.70;;;;;;6017253;28;19928;-48
2021/12/06 16:16:12;;;;;;;;;;;22.80;42.60;;;;;;5983127;28;20999;-46
2021/12/06 16:19:15;;;;;;;;;;;22.80;42.60;;;;;;6013959;28;20567;-50
2021/12/06 16:22:16;;;;;;;;;;;22.80;42.70;;;;;;6048051;28;19932;-49
2021/12/06 16:25:19;;;;;;;;;;;22.70;42.60;;;;;;6018543;28;19950;-47
2021/12/06 16:28:21;;;;;;;;;;;22.60;42.50;;;;;;6035017;28;20903;-49
2021/12/06 16:31:23;;;;;;;;;;;22.80;42.70;;;;;;6026879;28;20251;-46
2021/12/06 16:34:26;;;;;;;;;;;22.90;42.70;;;;;;6041775;28;20001;-49
2021/12/06 16:37:29;;;;;;;;;;;22.80;42.80;;;;;;6050211;28;20499;-49
2021/12/06 16:40:36;;;;;;;;;;;22.80;42.90;;;;;;6039411;28;19929;-48
2021/12/06 16:43:50;;;;;;;;;;;22.70;42.70;;;;;;6049122;28;20033;-52
2021/12/06 16:46:53;;;;;;;;;;;22.80;42.80;;;;;;6024989;28;21491;-45
2021/12/06 16:49:56;;;;;;;;;;;22.90;45.00;;;;;;6038001;28;19928;-52
2021/12/06 16:52:59;;;;;;;;;;;22.90;44.80;;;;;;6029924;28;20078;-51
2021/12/06 16:56:04;;;;;;;;;;;22.50;44.60;;;;;;6070474;28;20044;-43
2021/12/06 16:59:10;;;;;;;;;;;22.40;44.30;;;;;;6076427;28;20089;-38
2021/12/06 17:02:13;;;;;;;;;;;22.70;44.60;;;;;;6095849;28;20014;-38
2021/12/06 17:05:15;;;;;;;;;;;22.50;44.50;;;;;;6106866;28;21244;-37
2021/12/06 17:08:18;;;;;;;;;;;23.30;44.80;;;;;;6107502;28;21177;-40
2021/12/06 17:11:21;;;;;;;;;;;23.10;44.70;;;;;;6109053;28;19933;-37
2021/12/06 17:14:25;;;;;;;;;;;22.70;44.10;;;;;;6108285;28;20466;-37
2021/12/06 17:17:42;;;;;;;;;;;22.50;44.40;;;;;;6131087;28;19993;-37
2021/12/06 17:20:44;;;;;;;;;;;22.30;44.40;;;;;;6153469;28;20062;-37
2021/12/06 17:23:45;;;;;;;;;;;22.50;44.60;;;;;;6153821;28;19928;-37
2021/12/06 17:26:47;;;;;;;;;;;22.80;44.80;;;;;;6163243;28;19928;-37
2021/12/06 17:29:52;;;;;;;;;;;22.70;45.00;;;;;;6182970;28;20165;-37
2021/12/06 17:32:55;;;;;;;;;;;22.20;44.60;;;;;;6182577;28;20073;-37
2021/12/06 17:35:58;;;;;;;;;;;22.70;44.90;;;;;;6202898;28;20762;-37
2021/12/06 17:39:00;;;;;;;;;;;22.60;45.10;;;;;;6187045;28;19929;-36
2021/12/06 17:42:02;;;;;;;;;;;22.60;45.10;;;;;;6170519;28;19970;-37
2021/12/06 17:45:03;;;;;;;;;;;22.40;45.10;;;;;;6185053;28;21004;-37
2021/12/06 17:48:05;;;;;;;;;;;23.20;45.60;;;;;;6191957;28;19928;-36
2021/12/06 17:51:08;;;;;;;;;;;22.20;45.10;;;;;;6189050;28;19935;-37
2021/12/06 17:54:11;;;;;;;;;;;22.60;45.40;;;;;;6182857;28;20018;-37